createdAt,value
2023-03-23T15:58:20.926Z,2.38
2023-03-23T16:00:25.998Z,2.45
2023-03-23T16:02:27.941Z,2.40
2023-03-23T16:04:30.191Z,2.80
2023-03-23T16:06:33.454Z,3.08
2023-03-23T16:08:40.896Z,2.25
2023-03-23T16:10:43.527Z,2.70
2023-03-23T16:12:46.523Z,3.40
2023-03-23T16:14:48.403Z,2.75
2023-03-23T16:16:51.322Z,2.73
2023-03-23T16:18:53.559Z,3.25
2023-03-23T16:20:55.419Z,3.03
2023-03-23T16:22:57.632Z,2.97
2023-03-23T16:24:59.545Z,3.05
2023-03-23T16:27:01.415Z,3.33
2023-03-23T16:29:13.850Z,3.63
2023-03-23T16:31:19.007Z,3.35
2023-03-23T16:33:20.951Z,3.15
2023-03-23T16:35:22.874Z,3.67
2023-03-23T16:37:24.776Z,4.03
2023-03-23T16:39:26.654Z,5.90
2023-03-23T16:41:28.605Z,4.67
2023-03-23T16:43:30.421Z,3.70
2023-03-23T16:45:32.321Z,3.97
2023-03-23T16:47:34.236Z,5.03
2023-03-23T16:49:37.025Z,4.90
2023-03-23T16:53:41.449Z,5.00
2023-03-23T16:55:47.851Z,5.35
2023-03-23T16:57:49.699Z,4.53
2023-03-23T16:59:51.735Z,5.00
2023-03-23T17:01:53.601Z,4.55
2023-03-23T17:03:55.957Z,4.78
2023-03-23T17:05:59.390Z,4.85
2023-03-23T17:08:01.254Z,5.70
2023-03-23T17:10:03.213Z,5.87
2023-03-23T17:12:05.693Z,6.97
2023-03-23T17:14:07.569Z,6.00
2023-03-23T17:16:09.572Z,5.38
2023-03-23T17:18:11.498Z,5.00
2023-03-23T17:20:13.616Z,5.63
2023-03-23T17:22:15.518Z,5.22
2023-03-23T17:24:17.585Z,5.38
2023-03-23T17:26:19.426Z,5.57
2023-03-23T17:28:21.579Z,5.00
2023-03-23T17:30:23.498Z,4.88
2023-03-23T17:32:26.365Z,5.00
2023-03-23T17:34:28.217Z,5.30
2023-03-23T17:36:31.120Z,5.30
2023-03-23T17:38:33.011Z,5.38
2023-03-23T17:40:34.887Z,4.70
2023-03-23T17:42:37.610Z,4.80
2023-03-23T17:46:41.265Z,3.63
2023-03-23T17:48:43.173Z,4.00
2023-03-23T17:50:48.482Z,3.78
2023-03-23T17:52:50.352Z,4.32
2023-03-23T17:54:53.894Z,4.20
2023-03-23T17:56:57.942Z,4.35
2023-03-23T17:58:59.832Z,4.28
2023-03-23T18:01:01.886Z,4.40
2023-03-23T18:03:03.997Z,4.60
2023-03-23T18:05:08.277Z,5.40
2023-03-23T18:07:10.228Z,3.88
2023-03-23T18:09:12.120Z,5.05
2023-03-23T18:11:14.040Z,4.60
2023-03-23T18:13:15.994Z,5.05
2023-03-23T18:15:17.966Z,5.05
2023-03-23T18:17:19.818Z,4.63
2023-03-23T18:19:21.677Z,4.70
2023-03-23T18:21:23.605Z,4.17
2023-03-23T18:23:25.564Z,4.60
2023-03-23T18:25:27.485Z,5.05
2023-03-23T18:27:29.330Z,4.93
2023-03-23T18:29:31.157Z,4.70
2023-03-23T18:31:33.094Z,5.00
2023-03-23T18:33:37.619Z,4.80
2023-03-23T18:35:39.464Z,5.15
2023-03-23T18:37:41.570Z,4.90
2023-03-23T18:39:43.428Z,5.00
2023-03-23T18:41:45.312Z,5.83
2023-03-23T18:43:47.210Z,5.28
2023-03-23T18:45:50.772Z,5.07
2023-03-23T18:47:54.317Z,4.50
2023-03-23T18:49:56.895Z,4.57
2023-03-23T18:51:58.959Z,4.70
2023-03-23T18:54:00.835Z,4.43
2023-03-23T18:56:10.968Z,4.27
2023-03-23T18:58:13.025Z,4.40
2023-03-23T19:00:15.387Z,4.53
2023-03-23T19:02:18.926Z,4.60
2023-03-23T19:04:22.456Z,5.00
2023-03-23T19:06:25.562Z,4.78
2023-03-23T19:08:28.593Z,4.97
2023-03-23T19:10:30.665Z,5.72
2023-03-23T19:12:32.585Z,6.53
2023-03-23T19:14:35.407Z,5.35
2023-03-23T19:16:37.295Z,4.82
2023-03-23T19:18:39.180Z,4.30
2023-03-23T19:21:06.520Z,4.07
2023-03-23T19:23:04.417Z,4.63
2023-03-23T19:25:07.808Z,4.38
2023-03-23T19:27:09.861Z,4.93
2023-03-23T19:31:21.759Z,4.60
2023-03-23T19:33:24.509Z,4.47
2023-03-23T19:37:28.507Z,3.83
2023-03-23T19:39:31.007Z,4.28
2023-03-23T19:41:33.563Z,4.28
2023-03-23T19:43:36.365Z,4.38
2023-03-23T19:45:41.919Z,5.32
2023-03-23T19:47:44.851Z,5.28
2023-03-23T19:49:47.808Z,5.20
2023-03-23T19:51:49.639Z,5.15
2023-03-23T19:53:51.717Z,6.40
2023-03-23T19:55:53.716Z,6.25
2023-03-23T19:57:55.606Z,7.95
2023-03-23T19:59:59.236Z,8.55
2023-03-23T20:02:02.103Z,7.28
2023-03-23T20:04:05.477Z,6.88
2023-03-23T20:06:11.116Z,7.07
2023-03-23T20:08:14.817Z,6.50
2023-03-23T20:10:16.829Z,6.50
2023-03-23T20:12:18.678Z,6.30
2023-03-23T20:14:20.752Z,6.67
2023-03-23T20:16:22.733Z,9.80
2023-03-23T20:18:24.679Z,7.13
2023-03-23T20:20:26.849Z,6.78
2023-03-23T20:22:28.675Z,6.47
2023-03-23T20:24:30.546Z,6.10
2023-03-23T20:26:37.880Z,6.07
2023-03-23T20:28:40.698Z,5.40
2023-03-23T20:30:42.917Z,6.05
2023-03-23T20:32:46.498Z,6.80
2023-03-23T20:34:51.014Z,6.47
2023-03-23T20:36:54.708Z,6.55
2023-03-23T20:38:59.479Z,7.20
2023-03-23T20:41:05.739Z,7.88
2023-03-23T20:43:08.990Z,8.02
2023-03-23T20:45:12.905Z,8.98
2023-03-23T20:47:14.836Z,8.80
2023-03-23T20:49:17.596Z,9.50
2023-03-23T20:51:21.012Z,9.60
2023-03-23T20:53:23.528Z,9.27
2023-03-23T20:55:25.656Z,7.78
2023-03-23T20:57:28.896Z,8.85
2023-03-23T20:59:30.897Z,9.65
2023-03-23T21:01:35.494Z,11.82
2023-03-23T21:03:40.444Z,11.00
2023-03-23T21:05:43.705Z,13.35
2023-03-23T21:07:45.706Z,9.05
2023-03-23T21:09:47.996Z,8.45
2023-03-23T21:11:49.877Z,9.02
2023-03-23T21:13:51.908Z,8.43
2023-03-23T21:15:54.078Z,9.10
2023-03-23T21:17:56.195Z,9.10
2023-03-23T21:19:58.180Z,9.07
2023-03-23T21:22:00.269Z,8.03
2023-03-23T21:24:02.832Z,8.15
2023-03-23T21:26:08.111Z,8.20
2023-03-23T21:28:10.114Z,7.50
2023-03-23T21:30:12.107Z,7.80
2023-03-23T21:32:13.904Z,7.03
2023-03-23T21:34:15.772Z,8.03
2023-03-23T21:36:17.633Z,7.68
2023-03-23T21:38:19.974Z,7.15
2023-03-23T21:40:22.113Z,7.35
2023-03-23T21:42:30.311Z,6.97
2023-03-23T21:44:35.047Z,7.32
2023-03-23T21:46:38.408Z,6.22
2023-03-23T21:48:41.618Z,6.78
2023-03-23T21:50:43.687Z,6.72
2023-03-23T21:52:45.815Z,7.53
2023-03-23T21:54:48.843Z,7.80
2023-03-23T21:56:51.173Z,7.20
2023-03-23T21:58:53.036Z,8.10
2023-03-23T22:00:55.444Z,8.60
2023-03-23T22:02:57.432Z,7.47
2023-03-23T22:04:59.305Z,10.75
2023-03-23T22:07:01.165Z,9.97
2023-03-23T22:09:05.319Z,10.50
2023-03-23T22:11:10.950Z,9.68
2023-03-23T22:13:13.121Z,10.30
2023-03-23T22:15:15.262Z,10.77
2023-03-23T22:17:17.133Z,10.32
2023-03-23T22:19:19.192Z,10.33
2023-03-23T22:21:22.211Z,10.57
2023-03-23T22:23:24.061Z,11.00
2023-03-23T22:25:25.991Z,10.97
2023-03-23T22:27:27.841Z,11.43
2023-03-23T22:29:29.831Z,10.73
2023-03-23T22:31:34.238Z,13.20
2023-03-23T22:33:37.083Z,37.00
2023-03-23T22:35:39.267Z,21.42
2023-03-23T22:37:41.321Z,15.98
2023-03-23T22:39:43.244Z,10.57
2023-03-23T22:41:45.360Z,9.32
2023-03-23T22:43:47.449Z,10.35
2023-03-23T22:45:51.556Z,19.55
2023-03-23T22:47:53.541Z,21.48
2023-03-23T22:49:55.419Z,12.52
2023-03-23T22:51:57.448Z,16.85
2023-03-23T22:53:59.401Z,25.55
2023-03-23T22:56:01.479Z,16.55
2023-03-23T22:58:03.318Z,10.52
2023-03-23T23:00:14.277Z,8.07
2023-03-23T23:02:16.207Z,7.63
2023-03-23T23:04:18.211Z,7.07
2023-03-23T23:06:20.607Z,7.63
2023-03-23T23:08:22.834Z,7.03
2023-03-23T23:10:24.733Z,6.63
2023-03-23T23:12:26.682Z,7.18
2023-03-23T23:14:28.514Z,6.15
2023-03-23T23:16:31.070Z,6.23
2023-03-23T23:18:33.417Z,5.90
2023-03-23T23:20:35.381Z,6.30
2023-03-23T23:22:37.208Z,6.05
2023-03-23T23:24:39.030Z,6.60
2023-03-23T23:26:41.734Z,6.20
2023-03-23T23:30:46.062Z,5.63
2023-03-23T23:32:48.052Z,6.30
2023-03-23T23:34:49.935Z,5.53
2023-03-23T23:36:51.766Z,9.32
2023-03-23T23:38:53.627Z,9.03
2023-03-23T23:40:55.461Z,7.82
2023-03-23T23:42:57.294Z,7.73
2023-03-23T23:44:59.137Z,8.60
2023-03-23T23:47:02.069Z,7.90
2023-03-23T23:49:04.339Z,7.22
2023-03-23T23:51:06.658Z,7.90
2023-03-23T23:53:09.986Z,7.47
2023-03-23T23:55:13.894Z,6.57
2023-03-23T23:57:16.691Z,6.45
2023-03-23T23:59:18.545Z,5.50
